sensor_id;sensor_type;location;lat;lon;timestamp;P1;durP1;ratioP1;P2;durP2;ratioP2
24637;SDS011;12773;50.162;8.548;2023-07-02T00:00:49;4.45;;;2.00;;
24637;SDS011;12773;50.162;8.548;2023-07-02T00:03:38;4.15;;;1.98;;
24637;SDS011;12773;50.162;8.548;2023-07-02T00:06:25;3.20;;;2.15;;
24637;SDS011;12773;50.162;8.548;2023-07-02T00:09:13;4.72;;;2.08;;
24637;SDS011;12773;50.162;8.548;2023-07-02T00:12:01;5.15;;;2.02;;
24637;SDS011;12773;50.162;8.548;2023-07-02T00:14:49;4.20;;;2.00;;
24637;SDS011;12773;50.162;8.548;2023-07-02T00:17:39;3.15;;;2.05;;
24637;SDS011;12773;50.162;8.548;2023-07-02T00:20:26;5.90;;;2.20;;
24637;SDS011;12773;50.162;8.548;2023-07-02T00:23:15;3.92;;;1.80;;
24637;SDS011;12773;50.162;8.548;2023-07-02T00:26:02;4.80;;;1.85;;
24637;SDS011;12773;50.162;8.548;2023-07-02T00:28:50;6.33;;;2.15;;
24637;SDS011;12773;50.162;8.548;2023-07-02T00:31:39;3.35;;;2.02;;
24637;SDS011;12773;50.162;8.548;2023-07-02T00:34:27;6.08;;;2.10;;
24637;SDS011;12773;50.162;8.548;2023-07-02T00:37:14;4.95;;;2.12;;
24637;SDS011;12773;50.162;8.548;2023-07-02T00:40:01;4.87;;;2.17;;
24637;SDS011;12773;50.162;8.548;2023-07-02T00:42:49;6.37;;;2.22;;
24637;SDS011;12773;50.162;8.548;2023-07-02T00:45:36;7.40;;;2.33;;
24637;SDS011;12773;50.162;8.548;2023-07-02T00:48:24;4.17;;;2.12;;
24637;SDS011;12773;50.162;8.548;2023-07-02T00:51:18;3.00;;;1.80;;
24637;SDS011;12773;50.162;8.548;2023-07-02T00:54:01;6.12;;;2.20;;
24637;SDS011;12773;50.162;8.548;2023-07-02T00:56:49;7.37;;;2.67;;
24637;SDS011;12773;50.162;8.548;2023-07-02T00:59:36;7.50;;;2.30;;
24637;SDS011;12773;50.162;8.548;2023-07-02T01:02:24;6.50;;;2.33;;
24637;SDS011;12773;50.162;8.548;2023-07-02T01:05:16;5.67;;;2.17;;
24637;SDS011;12773;50.162;8.548;2023-07-02T01:08:05;8.20;;;2.72;;
24637;SDS011;12773;50.162;8.548;2023-07-02T01:10:52;5.42;;;2.55;;
24637;SDS011;12773;50.162;8.548;2023-07-02T01:13:40;2.67;;;2.10;;
24637;SDS011;12773;50.162;8.548;2023-07-02T01:16:30;6.00;;;2.20;;
24637;SDS011;12773;50.162;8.548;2023-07-02T01:19:21;8.60;;;2.52;;
24637;SDS011;12773;50.162;8.548;2023-07-02T01:22:10;3.58;;;2.20;;
24637;SDS011;12773;50.162;8.548;2023-07-02T01:24:58;9.10;;;2.37;;
24637;SDS011;12773;50.162;8.548;2023-07-02T01:27:46;8.98;;;2.33;;
24637;SDS011;12773;50.162;8.548;2023-07-02T01:30:34;6.83;;;2.50;;
24637;SDS011;12773;50.162;8.548;2023-07-02T01:33:23;8.28;;;2.77;;
24637;SDS011;12773;50.162;8.548;2023-07-02T01:36:10;7.15;;;2.72;;
24637;SDS011;12773;50.162;8.548;2023-07-02T01:38:57;9.53;;;2.62;;
24637;SDS011;12773;50.162;8.548;2023-07-02T01:44:42;7.17;;;2.30;;
24637;SDS011;12773;50.162;8.548;2023-07-02T01:47:30;7.60;;;2.58;;
24637;SDS011;12773;50.162;8.548;2023-07-02T01:50:18;7.80;;;2.72;;
24637;SDS011;12773;50.162;8.548;2023-07-02T01:53:05;5.55;;;2.50;;
24637;SDS011;12773;50.162;8.548;2023-07-02T01:55:52;4.37;;;2.12;;
24637;SDS011;12773;50.162;8.548;2023-07-02T01:58:40;5.37;;;2.15;;
24637;SDS011;12773;50.162;8.548;2023-07-02T02:01:27;8.38;;;2.50;;
24637;SDS011;12773;50.162;8.548;2023-07-02T02:04:15;8.90;;;2.20;;
24637;SDS011;12773;50.162;8.548;2023-07-02T02:07:03;7.60;;;2.42;;
24637;SDS011;12773;50.162;8.548;2023-07-02T02:09:50;9.35;;;2.37;;
24637;SDS011;12773;50.162;8.548;2023-07-02T02:12:37;6.10;;;2.37;;
24637;SDS011;12773;50.162;8.548;2023-07-02T02:15:25;6.45;;;2.35;;
24637;SDS011;12773;50.162;8.548;2023-07-02T02:18:12;8.30;;;2.42;;
24637;SDS011;12773;50.162;8.548;2023-07-02T02:21:00;9.25;;;2.80;;
24637;SDS011;12773;50.162;8.548;2023-07-02T02:23:48;11.35;;;2.40;;
24637;SDS011;12773;50.162;8.548;2023-07-02T02:26:35;10.00;;;2.77;;
24637;SDS011;12773;50.162;8.548;2023-07-02T02:29:23;4.60;;;2.45;;
24637;SDS011;12773;50.162;8.548;2023-07-02T02:32:11;8.85;;;2.58;;
24637;SDS011;12773;50.162;8.548;2023-07-02T02:34:58;14.00;;;2.35;;
24637;SDS011;12773;50.162;8.548;2023-07-02T02:37:46;7.30;;;2.60;;
24637;SDS011;12773;50.162;8.548;2023-07-02T02:40:34;6.00;;;2.60;;
24637;SDS011;12773;50.162;8.548;2023-07-02T02:43:21;7.12;;;2.37;;
24637;SDS011;12773;50.162;8.548;2023-07-02T02:46:09;6.75;;;2.47;;
24637;SDS011;12773;50.162;8.548;2023-07-02T02:48:58;4.85;;;2.50;;
24637;SDS011;12773;50.162;8.548;2023-07-02T02:51:45;3.85;;;2.40;;
24637;SDS011;12773;50.162;8.548;2023-07-02T02:54:33;10.08;;;2.30;;
24637;SDS011;12773;50.162;8.548;2023-07-02T02:57:20;8.38;;;2.58;;
24637;SDS011;12773;50.162;8.548;2023-07-02T03:00:07;9.40;;;2.90;;
24637;SDS011;12773;50.162;8.548;2023-07-02T03:02:55;8.35;;;2.50;;
24637;SDS011;12773;50.162;8.548;2023-07-02T03:05:43;7.87;;;2.35;;
24637;SDS011;12773;50.162;8.548;2023-07-02T03:08:32;7.15;;;2.65;;
24637;SDS011;12773;50.162;8.548;2023-07-02T03:11:20;7.75;;;2.80;;
24637;SDS011;12773;50.162;8.548;2023-07-02T03:14:07;6.37;;;2.75;;
24637;SDS011;12773;50.162;8.548;2023-07-02T03:16:55;10.38;;;2.70;;
24637;SDS011;12773;50.162;8.548;2023-07-02T03:19:42;5.90;;;2.98;;
24637;SDS011;12773;50.162;8.548;2023-07-02T03:22:30;8.85;;;2.77;;
24637;SDS011;12773;50.162;8.548;2023-07-02T03:25:17;7.95;;;2.67;;
24637;SDS011;12773;50.162;8.548;2023-07-02T03:28:05;6.50;;;2.80;;
24637;SDS011;12773;50.162;8.548;2023-07-02T03:30:52;8.18;;;3.35;;
24637;SDS011;12773;50.162;8.548;2023-07-02T03:33:40;8.03;;;3.35;;
24637;SDS011;12773;50.162;8.548;2023-07-02T03:36:27;8.00;;;3.15;;
24637;SDS011;12773;50.162;8.548;2023-07-02T03:39:14;8.58;;;3.10;;
24637;SDS011;12773;50.162;8.548;2023-07-02T03:42:04;7.42;;;3.50;;
24637;SDS011;12773;50.162;8.548;2023-07-02T03:44:52;7.28;;;3.30;;
24637;SDS011;12773;50.162;8.548;2023-07-02T03:47:40;10.00;;;3.17;;
24637;SDS011;12773;50.162;8.548;2023-07-02T03:50:27;11.57;;;3.67;;
24637;SDS011;12773;50.162;8.548;2023-07-02T03:53:15;6.33;;;3.22;;
24637;SDS011;12773;50.162;8.548;2023-07-02T03:56:03;9.75;;;3.55;;
24637;SDS011;12773;50.162;8.548;2023-07-02T03:58:50;7.45;;;3.60;;
24637;SDS011;12773;50.162;8.548;2023-07-02T04:01:38;9.48;;;3.87;;
24637;SDS011;12773;50.162;8.548;2023-07-02T04:04:26;12.98;;;4.20;;
24637;SDS011;12773;50.162;8.548;2023-07-02T04:07:13;11.80;;;4.17;;
24637;SDS011;12773;50.162;8.548;2023-07-02T04:10:01;11.30;;;5.05;;
24637;SDS011;12773;50.162;8.548;2023-07-02T04:12:49;7.03;;;4.08;;
24637;SDS011;12773;50.162;8.548;2023-07-02T04:15:36;13.43;;;4.90;;
24637;SDS011;12773;50.162;8.548;2023-07-02T04:18:24;11.03;;;4.33;;
24637;SDS011;12773;50.162;8.548;2023-07-02T04:21:11;12.23;;;4.62;;
24637;SDS011;12773;50.162;8.548;2023-07-02T04:23:59;12.60;;;5.62;;
24637;SDS011;12773;50.162;8.548;2023-07-02T04:26:47;10.53;;;5.00;;
24637;SDS011;12773;50.162;8.548;2023-07-02T04:29:36;10.88;;;5.85;;
24637;SDS011;12773;50.162;8.548;2023-07-02T04:32:24;12.73;;;5.67;;
24637;SDS011;12773;50.162;8.548;2023-07-02T04:35:12;12.15;;;5.33;;
24637;SDS011;12773;50.162;8.548;2023-07-02T04:38:00;17.37;;;6.20;;
24637;SDS011;12773;50.162;8.548;2023-07-02T04:40:48;14.53;;;5.87;;
24637;SDS011;12773;50.162;8.548;2023-07-02T04:43:37;11.75;;;5.83;;
24637;SDS011;12773;50.162;8.548;2023-07-02T04:46:25;15.83;;;6.85;;
24637;SDS011;12773;50.162;8.548;2023-07-02T04:49:12;13.68;;;6.17;;
24637;SDS011;12773;50.162;8.548;2023-07-02T04:52:00;13.48;;;6.53;;
24637;SDS011;12773;50.162;8.548;2023-07-02T04:54:48;17.52;;;6.33;;
24637;SDS011;12773;50.162;8.548;2023-07-02T04:57:36;16.65;;;5.95;;
24637;SDS011;12773;50.162;8.548;2023-07-02T05:00:23;13.70;;;5.80;;
24637;SDS011;12773;50.162;8.548;2023-07-02T05:03:11;14.03;;;5.95;;
24637;SDS011;12773;50.162;8.548;2023-07-02T05:05:58;12.07;;;5.60;;
24637;SDS011;12773;50.162;8.548;2023-07-02T05:08:46;15.63;;;6.20;;
24637;SDS011;12773;50.162;8.548;2023-07-02T05:11:33;22.65;;;6.70;;
24637;SDS011;12773;50.162;8.548;2023-07-02T05:14:20;20.08;;;7.22;;
24637;SDS011;12773;50.162;8.548;2023-07-02T05:17:08;16.23;;;7.00;;
24637;SDS011;12773;50.162;8.548;2023-07-02T05:19:56;17.77;;;6.83;;
24637;SDS011;12773;50.162;8.548;2023-07-02T05:22:43;18.70;;;7.12;;
24637;SDS011;12773;50.162;8.548;2023-07-02T05:25:31;16.35;;;7.85;;
24637;SDS011;12773;50.162;8.548;2023-07-02T05:28:19;18.60;;;7.62;;
24637;SDS011;12773;50.162;8.548;2023-07-02T05:31:07;23.27;;;7.75;;
24637;SDS011;12773;50.162;8.548;2023-07-02T05:33:54;20.20;;;7.78;;
24637;SDS011;12773;50.162;8.548;2023-07-02T05:36:42;19.50;;;7.75;;
24637;SDS011;12773;50.162;8.548;2023-07-02T05:39:29;13.48;;;7.00;;
24637;SDS011;12773;50.162;8.548;2023-07-02T05:42:16;17.65;;;7.65;;
24637;SDS011;12773;50.162;8.548;2023-07-02T05:45:04;16.10;;;7.80;;
24637;SDS011;12773;50.162;8.548;2023-07-02T05:47:51;15.25;;;6.42;;
24637;SDS011;12773;50.162;8.548;2023-07-02T05:50:39;15.03;;;7.33;;
24637;SDS011;12773;50.162;8.548;2023-07-02T05:53:26;20.12;;;7.80;;
24637;SDS011;12773;50.162;8.548;2023-07-02T05:56:14;18.65;;;7.40;;
24637;SDS011;12773;50.162;8.548;2023-07-02T05:59:01;19.45;;;7.30;;
24637;SDS011;12773;50.162;8.548;2023-07-02T06:01:49;20.57;;;7.67;;
24637;SDS011;12773;50.162;8.548;2023-07-02T06:04:36;15.35;;;6.95;;
24637;SDS011;12773;50.162;8.548;2023-07-02T06:07:26;17.17;;;7.70;;
24637;SDS011;12773;50.162;8.548;2023-07-02T06:10:14;17.07;;;7.15;;
24637;SDS011;12773;50.162;8.548;2023-07-02T06:13:02;18.90;;;7.30;;
24637;SDS011;12773;50.162;8.548;2023-07-02T06:15:49;16.37;;;7.83;;
24637;SDS011;12773;50.162;8.548;2023-07-02T06:18:37;16.82;;;7.78;;
24637;SDS011;12773;50.162;8.548;2023-07-02T06:21:25;16.00;;;7.30;;
24637;SDS011;12773;50.162;8.548;2023-07-02T06:24:15;19.15;;;8.38;;
24637;SDS011;12773;50.162;8.548;2023-07-02T06:27:02;18.92;;;7.75;;
24637;SDS011;12773;50.162;8.548;2023-07-02T06:29:50;17.25;;;7.92;;
24637;SDS011;12773;50.162;8.548;2023-07-02T06:32:37;18.37;;;7.47;;
24637;SDS011;12773;50.162;8.548;2023-07-02T06:35:25;16.10;;;7.35;;
24637;SDS011;12773;50.162;8.548;2023-07-02T06:38:13;18.23;;;7.65;;
24637;SDS011;12773;50.162;8.548;2023-07-02T06:41:00;16.23;;;7.60;;
24637;SDS011;12773;50.162;8.548;2023-07-02T06:43:48;19.23;;;8.20;;
24637;SDS011;12773;50.162;8.548;2023-07-02T06:46:35;19.17;;;8.35;;
24637;SDS011;12773;50.162;8.548;2023-07-02T06:49:23;15.88;;;8.05;;
24637;SDS011;12773;50.162;8.548;2023-07-02T06:52:10;15.88;;;7.95;;
24637;SDS011;12773;50.162;8.548;2023-07-02T06:54:58;17.00;;;8.10;;
24637;SDS011;12773;50.162;8.548;2023-07-02T06:57:45;17.37;;;8.28;;
24637;SDS011;12773;50.162;8.548;2023-07-02T07:00:33;18.02;;;7.97;;
24637;SDS011;12773;50.162;8.548;2023-07-02T07:03:23;20.15;;;8.08;;
24637;SDS011;12773;50.162;8.548;2023-07-02T07:06:11;21.35;;;8.13;;
24637;SDS011;12773;50.162;8.548;2023-07-02T07:08:58;16.65;;;7.55;;
24637;SDS011;12773;50.162;8.548;2023-07-02T07:11:46;18.32;;;8.08;;
24637;SDS011;12773;50.162;8.548;2023-07-02T07:14:34;22.20;;;8.53;;
24637;SDS011;12773;50.162;8.548;2023-07-02T07:17:21;22.65;;;8.25;;
24637;SDS011;12773;50.162;8.548;2023-07-02T07:20:09;17.57;;;7.90;;
24637;SDS011;12773;50.162;8.548;2023-07-02T07:22:57;18.77;;;7.83;;
24637;SDS011;12773;50.162;8.548;2023-07-02T07:25:45;19.10;;;8.20;;
24637;SDS011;12773;50.162;8.548;2023-07-02T07:28:32;19.10;;;8.98;;
24637;SDS011;12773;50.162;8.548;2023-07-02T07:31:19;17.55;;;8.60;;
24637;SDS011;12773;50.162;8.548;2023-07-02T07:34:07;19.98;;;8.83;;
24637;SDS011;12773;50.162;8.548;2023-07-02T07:36:54;22.25;;;9.10;;
24637;SDS011;12773;50.162;8.548;2023-07-02T07:39:42;26.45;;;9.75;;
24637;SDS011;12773;50.162;8.548;2023-07-02T07:42:29;23.73;;;10.23;;
24637;SDS011;12773;50.162;8.548;2023-07-02T07:45:17;19.98;;;10.00;;
24637;SDS011;12773;50.162;8.548;2023-07-02T07:48:05;18.12;;;9.78;;
24637;SDS011;12773;50.162;8.548;2023-07-02T07:50:52;24.87;;;11.03;;
24637;SDS011;12773;50.162;8.548;2023-07-02T07:53:40;18.77;;;9.00;;
24637;SDS011;12773;50.162;8.548;2023-07-02T07:56:28;23.20;;;9.70;;
24637;SDS011;12773;50.162;8.548;2023-07-02T07:59:16;17.10;;;8.85;;
24637;SDS011;12773;50.162;8.548;2023-07-02T08:02:04;25.40;;;10.05;;
24637;SDS011;12773;50.162;8.548;2023-07-02T08:04:52;21.15;;;9.83;;
24637;SDS011;12773;50.162;8.548;2023-07-02T08:07:40;19.45;;;9.08;;
24637;SDS011;12773;50.162;8.548;2023-07-02T08:10:27;19.55;;;9.35;;
24637;SDS011;12773;50.162;8.548;2023-07-02T08:13:15;20.02;;;9.15;;
24637;SDS011;12773;50.162;8.548;2023-07-02T08:16:03;19.32;;;8.55;;
24637;SDS011;12773;50.162;8.548;2023-07-02T08:18:51;20.60;;;8.85;;
24637;SDS011;12773;50.162;8.548;2023-07-02T08:21:39;17.37;;;8.65;;
24637;SDS011;12773;50.162;8.548;2023-07-02T08:24:27;18.80;;;8.53;;
24637;SDS011;12773;50.162;8.548;2023-07-02T08:27:16;18.25;;;8.23;;
24637;SDS011;12773;50.162;8.548;2023-07-02T08:30:06;17.17;;;8.75;;
24637;SDS011;12773;50.162;8.548;2023-07-02T08:32:56;21.02;;;9.03;;
24637;SDS011;12773;50.162;8.548;2023-07-02T08:35:43;15.78;;;8.23;;
24637;SDS011;12773;50.162;8.548;2023-07-02T08:38:30;17.35;;;7.75;;
24637;SDS011;12773;50.162;8.548;2023-07-02T08:41:19;15.05;;;7.58;;
24637;SDS011;12773;50.162;8.548;2023-07-02T08:44:09;18.00;;;7.78;;
24637;SDS011;12773;50.162;8.548;2023-07-02T08:47:02;15.63;;;7.50;;
24637;SDS011;12773;50.162;8.548;2023-07-02T08:49:50;16.93;;;8.28;;
24637;SDS011;12773;50.162;8.548;2023-07-02T08:52:37;19.67;;;7.67;;
24637;SDS011;12773;50.162;8.548;2023-07-02T08:55:25;18.40;;;8.43;;
24637;SDS011;12773;50.162;8.548;2023-07-02T08:58:14;16.10;;;8.13;;
24637;SDS011;12773;50.162;8.548;2023-07-02T09:01:10;15.83;;;8.25;;
24637;SDS011;12773;50.162;8.548;2023-07-02T09:03:59;18.40;;;8.48;;
24637;SDS011;12773;50.162;8.548;2023-07-02T09:07:02;15.93;;;7.55;;
24637;SDS011;12773;50.162;8.548;2023-07-02T09:09:45;17.82;;;7.80;;
24637;SDS011;12773;50.162;8.548;2023-07-02T09:12:34;15.20;;;8.23;;
24637;SDS011;12773;50.162;8.548;2023-07-02T09:15:22;12.82;;;7.55;;
24637;SDS011;12773;50.162;8.548;2023-07-02T09:18:20;14.98;;;7.47;;
24637;SDS011;12773;50.162;8.548;2023-07-02T09:21:10;15.48;;;7.78;;
24637;SDS011;12773;50.162;8.548;2023-07-02T09:23:58;17.20;;;7.45;;
24637;SDS011;12773;50.162;8.548;2023-07-02T09:26:46;13.93;;;7.28;;
24637;SDS011;12773;50.162;8.548;2023-07-02T09:29:37;17.00;;;7.62;;
24637;SDS011;12773;50.162;8.548;2023-07-02T09:32:25;12.58;;;6.92;;
24637;SDS011;12773;50.162;8.548;2023-07-02T09:35:13;14.50;;;7.70;;
24637;SDS011;12773;50.162;8.548;2023-07-02T09:38:01;14.80;;;7.17;;
24637;SDS011;12773;50.162;8.548;2023-07-02T09:40:49;13.48;;;7.03;;
24637;SDS011;12773;50.162;8.548;2023-07-02T09:43:38;15.58;;;7.75;;
24637;SDS011;12773;50.162;8.548;2023-07-02T09:46:27;17.12;;;8.63;;
24637;SDS011;12773;50.162;8.548;2023-07-02T09:49:17;15.78;;;7.55;;
24637;SDS011;12773;50.162;8.548;2023-07-02T09:52:07;13.80;;;7.42;;
24637;SDS011;12773;50.162;8.548;2023-07-02T09:54:55;17.35;;;8.75;;
24637;SDS011;12773;50.162;8.548;2023-07-02T09:57:43;15.50;;;8.73;;
24637;SDS011;12773;50.162;8.548;2023-07-02T10:00:31;16.12;;;8.15;;
24637;SDS011;12773;50.162;8.548;2023-07-02T10:03:27;16.80;;;7.60;;
24637;SDS011;12773;50.162;8.548;2023-07-02T10:06:16;14.35;;;8.30;;
24637;SDS011;12773;50.162;8.548;2023-07-02T10:09:03;17.25;;;8.88;;
24637;SDS011;12773;50.162;8.548;2023-07-02T10:11:50;18.57;;;8.35;;
24637;SDS011;12773;50.162;8.548;2023-07-02T10:14:41;13.18;;;7.42;;
24637;SDS011;12773;50.162;8.548;2023-07-02T10:17:33;14.68;;;7.20;;
24637;SDS011;12773;50.162;8.548;2023-07-02T10:20:32;14.87;;;7.67;;
24637;SDS011;12773;50.162;8.548;2023-07-02T10:23:22;13.95;;;7.20;;
24637;SDS011;12773;50.162;8.548;2023-07-02T10:26:20;14.85;;;7.78;;
24637;SDS011;12773;50.162;8.548;2023-07-02T10:29:08;16.32;;;7.72;;
24637;SDS011;12773;50.162;8.548;2023-07-02T10:31:58;15.93;;;6.97;;
24637;SDS011;12773;50.162;8.548;2023-07-02T10:34:49;13.93;;;6.55;;
24637;SDS011;12773;50.162;8.548;2023-07-02T10:37:36;12.20;;;6.58;;
24637;SDS011;12773;50.162;8.548;2023-07-02T10:40:24;13.95;;;7.55;;
24637;SDS011;12773;50.162;8.548;2023-07-02T10:43:12;12.55;;;7.58;;
24637;SDS011;12773;50.162;8.548;2023-07-02T10:45:59;13.65;;;6.95;;
24637;SDS011;12773;50.162;8.548;2023-07-02T10:48:54;10.43;;;6.35;;
24637;SDS011;12773;50.162;8.548;2023-07-02T10:51:43;15.85;;;6.80;;
24637;SDS011;12773;50.162;8.548;2023-07-02T10:54:41;13.75;;;7.10;;
24637;SDS011;12773;50.162;8.548;2023-07-02T10:57:29;13.48;;;7.67;;
24637;SDS011;12773;50.162;8.548;2023-07-02T11:00:17;18.65;;;8.25;;
24637;SDS011;12773;50.162;8.548;2023-07-02T11:03:15;18.05;;;8.30;;
24637;SDS011;12773;50.162;8.548;2023-07-02T11:05:56;15.80;;;8.28;;
24637;SDS011;12773;50.162;8.548;2023-07-02T11:08:44;19.65;;;9.25;;
24637;SDS011;12773;50.162;8.548;2023-07-02T11:11:32;17.73;;;7.95;;
24637;SDS011;12773;50.162;8.548;2023-07-02T11:14:34;15.32;;;8.10;;
24637;SDS011;12773;50.162;8.548;2023-07-02T11:17:25;20.25;;;8.50;;
24637;SDS011;12773;50.162;8.548;2023-07-02T11:20:13;18.62;;;8.73;;
24637;SDS011;12773;50.162;8.548;2023-07-02T11:23:01;16.65;;;8.15;;
24637;SDS011;12773;50.162;8.548;2023-07-02T11:25:58;15.58;;;8.15;;
24637;SDS011;12773;50.162;8.548;2023-07-02T11:28:47;16.17;;;8.68;;
24637;SDS011;12773;50.162;8.548;2023-07-02T11:31:37;15.72;;;8.03;;
24637;SDS011;12773;50.162;8.548;2023-07-02T11:34:25;18.02;;;8.28;;
24637;SDS011;12773;50.162;8.548;2023-07-02T11:37:12;13.10;;;8.05;;
24637;SDS011;12773;50.162;8.548;2023-07-02T11:40:00;16.25;;;8.43;;
24637;SDS011;12773;50.162;8.548;2023-07-02T11:42:47;13.93;;;8.03;;
24637;SDS011;12773;50.162;8.548;2023-07-02T11:45:35;15.25;;;8.25;;
24637;SDS011;12773;50.162;8.548;2023-07-02T11:48:22;13.32;;;8.58;;
24637;SDS011;12773;50.162;8.548;2023-07-02T11:51:10;17.37;;;8.50;;
24637;SDS011;12773;50.162;8.548;2023-07-02T11:53:58;17.62;;;8.53;;
24637;SDS011;12773;50.162;8.548;2023-07-02T11:56:45;16.90;;;8.90;;
24637;SDS011;12773;50.162;8.548;2023-07-02T11:59:33;17.73;;;8.60;;
24637;SDS011;12773;50.162;8.548;2023-07-02T12:02:22;17.05;;;8.70;;
24637;SDS011;12773;50.162;8.548;2023-07-02T12:05:09;14.93;;;8.23;;
24637;SDS011;12773;50.162;8.548;2023-07-02T12:07:58;14.87;;;8.60;;
24637;SDS011;12773;50.162;8.548;2023-07-02T12:10:45;15.95;;;8.30;;
24637;SDS011;12773;50.162;8.548;2023-07-02T12:13:33;14.73;;;8.38;;
24637;SDS011;12773;50.162;8.548;2023-07-02T12:16:21;15.63;;;7.87;;
24637;SDS011;12773;50.162;8.548;2023-07-02T12:19:08;17.82;;;8.30;;
24637;SDS011;12773;50.162;8.548;2023-07-02T12:21:56;16.20;;;7.90;;
24637;SDS011;12773;50.162;8.548;2023-07-02T12:24:43;14.33;;;7.20;;
24637;SDS011;12773;50.162;8.548;2023-07-02T12:27:31;13.32;;;8.25;;
24637;SDS011;12773;50.162;8.548;2023-07-02T12:30:19;15.72;;;8.13;;
24637;SDS011;12773;50.162;8.548;2023-07-02T12:33:07;15.75;;;7.25;;
24637;SDS011;12773;50.162;8.548;2023-07-02T12:35:54;15.03;;;8.10;;
24637;SDS011;12773;50.162;8.548;2023-07-02T12:38:41;14.45;;;7.45;;
24637;SDS011;12773;50.162;8.548;2023-07-02T12:41:29;15.10;;;7.90;;
24637;SDS011;12773;50.162;8.548;2023-07-02T12:44:16;14.43;;;8.18;;
24637;SDS011;12773;50.162;8.548;2023-07-02T12:47:04;16.97;;;8.30;;
24637;SDS011;12773;50.162;8.548;2023-07-02T12:49:52;17.70;;;8.28;;
24637;SDS011;12773;50.162;8.548;2023-07-02T12:52:39;14.30;;;8.03;;
24637;SDS011;12773;50.162;8.548;2023-07-02T12:55:27;17.05;;;8.48;;
24637;SDS011;12773;50.162;8.548;2023-07-02T12:58:14;13.93;;;8.20;;
24637;SDS011;12773;50.162;8.548;2023-07-02T13:01:02;15.10;;;8.18;;
24637;SDS011;12773;50.162;8.548;2023-07-02T13:03:49;15.93;;;8.68;;
24637;SDS011;12773;50.162;8.548;2023-07-02T13:06:37;17.12;;;8.33;;
24637;SDS011;12773;50.162;8.548;2023-07-02T13:09:26;14.40;;;8.33;;
24637;SDS011;12773;50.162;8.548;2023-07-02T13:12:13;18.73;;;9.73;;
24637;SDS011;12773;50.162;8.548;2023-07-02T13:15:01;17.02;;;8.65;;
24637;SDS011;12773;50.162;8.548;2023-07-02T13:17:49;16.77;;;9.10;;
24637;SDS011;12773;50.162;8.548;2023-07-02T13:20:36;15.23;;;8.90;;
24637;SDS011;12773;50.162;8.548;2023-07-02T13:23:24;17.62;;;9.00;;
24637;SDS011;12773;50.162;8.548;2023-07-02T13:26:11;20.45;;;9.80;;
24637;SDS011;12773;50.162;8.548;2023-07-02T13:28:58;14.47;;;8.75;;
24637;SDS011;12773;50.162;8.548;2023-07-02T13:31:46;18.20;;;9.25;;
24637;SDS011;12773;50.162;8.548;2023-07-02T13:34:34;18.40;;;8.70;;
24637;SDS011;12773;50.162;8.548;2023-07-02T13:37:22;16.97;;;9.03;;
24637;SDS011;12773;50.162;8.548;2023-07-02T13:40:09;19.37;;;9.45;;
24637;SDS011;12773;50.162;8.548;2023-07-02T13:42:58;20.40;;;9.70;;
24637;SDS011;12773;50.162;8.548;2023-07-02T13:45:46;16.55;;;9.53;;
24637;SDS011;12773;50.162;8.548;2023-07-02T13:48:34;18.77;;;9.25;;
24637;SDS011;12773;50.162;8.548;2023-07-02T13:51:22;18.42;;;9.68;;
24637;SDS011;12773;50.162;8.548;2023-07-02T13:54:11;17.55;;;9.53;;
24637;SDS011;12773;50.162;8.548;2023-07-02T13:57:00;18.12;;;9.60;;
24637;SDS011;12773;50.162;8.548;2023-07-02T13:59:47;16.37;;;9.50;;
24637;SDS011;12773;50.162;8.548;2023-07-02T14:05:42;17.55;;;9.63;;
24637;SDS011;12773;50.162;8.548;2023-07-02T14:08:30;21.82;;;10.08;;
24637;SDS011;12773;50.162;8.548;2023-07-02T14:11:18;19.10;;;10.80;;
24637;SDS011;12773;50.162;8.548;2023-07-02T14:14:06;20.00;;;10.30;;
24637;SDS011;12773;50.162;8.548;2023-07-02T14:16:54;23.22;;;10.45;;
24637;SDS011;12773;50.162;8.548;2023-07-02T14:19:41;20.40;;;10.75;;
24637;SDS011;12773;50.162;8.548;2023-07-02T14:22:30;21.23;;;10.30;;
24637;SDS011;12773;50.162;8.548;2023-07-02T14:25:18;23.12;;;10.30;;
24637;SDS011;12773;50.162;8.548;2023-07-02T14:28:07;19.87;;;10.18;;
24637;SDS011;12773;50.162;8.548;2023-07-02T14:30:56;18.87;;;10.15;;
24637;SDS011;12773;50.162;8.548;2023-07-02T14:33:47;21.10;;;10.48;;
24637;SDS011;12773;50.162;8.548;2023-07-02T14:36:35;18.17;;;9.70;;
24637;SDS011;12773;50.162;8.548;2023-07-02T14:39:22;19.30;;;10.10;;
24637;SDS011;12773;50.162;8.548;2023-07-02T14:42:09;17.98;;;9.75;;
24637;SDS011;12773;50.162;8.548;2023-07-02T14:44:57;18.12;;;9.93;;
24637;SDS011;12773;50.162;8.548;2023-07-02T14:47:44;19.75;;;10.13;;
24637;SDS011;12773;50.162;8.548;2023-07-02T14:50:32;19.92;;;10.38;;
24637;SDS011;12773;50.162;8.548;2023-07-02T14:53:20;20.25;;;10.78;;
24637;SDS011;12773;50.162;8.548;2023-07-02T14:56:07;24.50;;;10.78;;
24637;SDS011;12773;50.162;8.548;2023-07-02T14:58:55;21.85;;;10.78;;
24637;SDS011;12773;50.162;8.548;2023-07-02T15:01:43;21.90;;;11.00;;
24637;SDS011;12773;50.162;8.548;2023-07-02T15:04:30;19.52;;;10.13;;
24637;SDS011;12773;50.162;8.548;2023-07-02T15:07:18;19.00;;;11.03;;
24637;SDS011;12773;50.162;8.548;2023-07-02T15:10:06;20.10;;;10.18;;
24637;SDS011;12773;50.162;8.548;2023-07-02T15:12:54;18.15;;;10.25;;
24637;SDS011;12773;50.162;8.548;2023-07-02T15:15:42;20.70;;;10.78;;
24637;SDS011;12773;50.162;8.548;2023-07-02T15:18:30;23.38;;;10.30;;
24637;SDS011;12773;50.162;8.548;2023-07-02T15:21:18;19.02;;;10.13;;
24637;SDS011;12773;50.162;8.548;2023-07-02T15:24:06;17.48;;;9.85;;
24637;SDS011;12773;50.162;8.548;2023-07-02T15:26:55;19.37;;;10.68;;
24637;SDS011;12773;50.162;8.548;2023-07-02T15:29:43;20.90;;;11.18;;
24637;SDS011;12773;50.162;8.548;2023-07-02T15:32:30;22.22;;;11.57;;
24637;SDS011;12773;50.162;8.548;2023-07-02T15:35:17;18.57;;;10.30;;
24637;SDS011;12773;50.162;8.548;2023-07-02T15:38:05;17.62;;;10.25;;
24637;SDS011;12773;50.162;8.548;2023-07-02T15:41:03;17.40;;;10.68;;
24637;SDS011;12773;50.162;8.548;2023-07-02T15:43:52;20.23;;;10.85;;
24637;SDS011;12773;50.162;8.548;2023-07-02T15:46:41;18.30;;;9.95;;
24637;SDS011;12773;50.162;8.548;2023-07-02T15:49:29;19.62;;;10.18;;
24637;SDS011;12773;50.162;8.548;2023-07-02T15:52:16;18.73;;;9.93;;
24637;SDS011;12773;50.162;8.548;2023-07-02T15:55:04;17.73;;;9.73;;
24637;SDS011;12773;50.162;8.548;2023-07-02T15:57:52;18.65;;;10.30;;
24637;SDS011;12773;50.162;8.548;2023-07-02T16:00:39;17.98;;;9.65;;
24637;SDS011;12773;50.162;8.548;2023-07-02T16:03:27;20.62;;;10.32;;
24637;SDS011;12773;50.162;8.548;2023-07-02T16:06:15;20.32;;;9.88;;
24637;SDS011;12773;50.162;8.548;2023-07-02T16:09:04;21.20;;;10.70;;
24637;SDS011;12773;50.162;8.548;2023-07-02T16:11:53;21.37;;;9.93;;
24637;SDS011;12773;50.162;8.548;2023-07-02T16:14:41;19.02;;;10.08;;
24637;SDS011;12773;50.162;8.548;2023-07-02T16:17:28;19.10;;;10.20;;
24637;SDS011;12773;50.162;8.548;2023-07-02T16:20:15;19.02;;;9.68;;
24637;SDS011;12773;50.162;8.548;2023-07-02T16:23:03;19.87;;;10.30;;
24637;SDS011;12773;50.162;8.548;2023-07-02T16:25:53;19.15;;;10.00;;
24637;SDS011;12773;50.162;8.548;2023-07-02T16:28:41;27.42;;;10.55;;
24637;SDS011;12773;50.162;8.548;2023-07-02T16:31:29;22.87;;;10.28;;
24637;SDS011;12773;50.162;8.548;2023-07-02T16:34:16;22.77;;;10.40;;
24637;SDS011;12773;50.162;8.548;2023-07-02T16:37:04;20.52;;;9.63;;
24637;SDS011;12773;50.162;8.548;2023-07-02T16:39:52;18.73;;;9.88;;
24637;SDS011;12773;50.162;8.548;2023-07-02T16:42:39;24.60;;;11.18;;
24637;SDS011;12773;50.162;8.548;2023-07-02T16:45:27;19.42;;;9.88;;